createdAt,value
2023-03-01T00:00:47.571Z,100.00
2023-03-01T00:02:50.335Z,100.00
2023-03-01T00:04:53.161Z,100.00
2023-03-01T00:06:55.950Z,100.00
2023-03-01T00:08:58.684Z,100.00
2023-03-01T00:11:06.606Z,100.00
2023-03-01T00:13:09.492Z,100.00
2023-03-01T00:15:13.993Z,100.00
2023-03-01T00:17:16.805Z,100.00
2023-03-01T00:19:22.898Z,100.00
2023-03-01T00:21:26.663Z,100.00
2023-03-01T00:23:29.625Z,100.00
2023-03-01T00:25:32.365Z,100.00
2023-03-01T00:27:35.134Z,100.00
2023-03-01T00:29:37.942Z,100.00
2023-03-01T00:31:42.165Z,100.00
2023-03-01T00:33:45.514Z,100.00
2023-03-01T00:35:48.401Z,100.00
2023-03-01T00:37:54.483Z,100.00
2023-03-01T00:39:57.313Z,100.00
2023-03-01T00:42:00.067Z,100.00
2023-03-01T00:44:02.882Z,100.00
2023-03-01T00:46:07.153Z,100.00
2023-03-01T00:48:11.341Z,100.00
2023-03-01T00:50:14.366Z,100.00
2023-03-01T00:52:17.157Z,100.00
2023-03-01T00:54:19.965Z,100.00
2023-03-01T00:56:23.940Z,100.00
2023-03-01T00:58:26.767Z,100.00
2023-03-01T01:00:29.650Z,100.00
2023-03-01T01:02:35.046Z,100.00
2023-03-01T01:04:39.261Z,100.00
2023-03-01T01:06:43.883Z,100.00
2023-03-01T01:08:46.817Z,100.00
2023-03-01T01:10:49.735Z,100.00
2023-03-01T01:12:52.500Z,100.00
2023-03-01T01:14:55.394Z,100.00
2023-03-01T01:16:58.417Z,100.00
2023-03-01T01:19:01.204Z,100.00
2023-03-01T01:21:10.841Z,100.00
2023-03-01T01:23:13.874Z,100.00
2023-03-01T01:25:16.724Z,100.00
2023-03-01T01:27:19.472Z,100.00
2023-03-01T01:29:22.265Z,100.00
2023-03-01T01:31:26.301Z,100.00
2023-03-01T01:33:29.439Z,100.00
2023-03-01T01:35:32.272Z,100.00
2023-03-01T01:37:36.611Z,100.00
2023-03-01T01:39:39.374Z,100.00
2023-03-01T01:41:43.843Z,100.00
2023-03-01T01:43:49.165Z,100.00
2023-03-01T01:45:52.479Z,100.00
2023-03-01T01:47:57.524Z,100.00
2023-03-01T01:50:00.297Z,100.00
2023-03-01T01:52:09.324Z,100.00
2023-03-01T01:54:17.832Z,100.00
2023-03-01T01:56:22.087Z,100.00
2023-03-01T01:58:27.843Z,100.00
2023-03-01T02:00:32.323Z,100.00
2023-03-01T02:02:35.360Z,100.00
2023-03-01T02:04:38.248Z,100.00
2023-03-01T02:06:48.122Z,100.00
2023-03-01T02:08:54.604Z,100.00
2023-03-01T02:11:00.654Z,100.00
2023-03-01T02:13:05.490Z,100.00
2023-03-01T02:15:08.818Z,100.00
2023-03-01T02:17:13.285Z,100.00
2023-03-01T02:19:25.053Z,100.00
2023-03-01T02:21:37.582Z,100.00
2023-03-01T02:23:40.982Z,100.00
2023-03-01T02:25:53.796Z,100.00
2023-03-01T02:28:07.330Z,100.00
2023-03-01T02:30:14.056Z,100.00
2023-03-01T02:32:17.431Z,100.00
2023-03-01T02:34:23.221Z,100.00
2023-03-01T02:36:31.349Z,100.00
2023-03-01T02:38:34.748Z,100.00
2023-03-01T02:40:40.003Z,100.00
2023-03-01T02:42:49.346Z,100.00
2023-03-01T02:44:52.366Z,100.00
2023-03-01T02:47:00.065Z,100.00
2023-03-01T02:49:02.828Z,100.00
2023-03-01T02:51:12.295Z,100.00
2023-03-01T02:53:19.291Z,100.00
2023-03-01T02:55:22.131Z,100.00
2023-03-01T02:57:28.362Z,100.00
2023-03-01T02:59:34.652Z,100.00
2023-03-01T03:01:38.522Z,100.00
2023-03-01T03:03:45.244Z,100.00
2023-03-01T03:05:49.337Z,100.00
2023-03-01T03:07:53.170Z,100.00
2023-03-01T03:09:55.882Z,100.00
2023-03-01T03:11:58.646Z,100.00
2023-03-01T03:14:02.516Z,100.00
2023-03-01T03:16:05.972Z,100.00
2023-03-01T03:18:11.507Z,100.00
2023-03-01T03:20:20.026Z,100.00
2023-03-01T03:22:22.938Z,100.00
2023-03-01T03:24:25.643Z,100.00
2023-03-01T03:26:28.585Z,100.00
2023-03-01T03:28:31.642Z,100.00
2023-03-01T03:30:34.337Z,100.00
2023-03-01T03:32:37.985Z,100.00
2023-03-01T03:34:40.857Z,100.00
2023-03-01T03:36:44.905Z,100.00
2023-03-01T03:38:47.032Z,100.00
2023-03-01T03:40:51.335Z,100.00
2023-03-01T03:42:54.041Z,100.00
2023-03-01T03:44:56.783Z,100.00
2023-03-01T03:46:59.477Z,100.00
2023-03-01T03:49:02.167Z,100.00
2023-03-01T03:51:06.297Z,100.00
2023-03-01T03:53:13.730Z,100.00
2023-03-01T03:55:20.154Z,100.00
2023-03-01T03:57:23.164Z,100.00
2023-03-01T03:59:25.940Z,100.00
2023-03-01T04:01:28.672Z,100.00
2023-03-01T04:03:34.173Z,100.00
2023-03-01T04:05:38.471Z,100.00
2023-03-01T04:07:41.193Z,100.00
2023-03-01T04:09:45.602Z,100.00
2023-03-01T04:11:49.319Z,100.00
2023-03-01T04:13:53.846Z,100.00
2023-03-01T04:15:56.884Z,100.00
2023-03-01T04:17:59.976Z,100.00
2023-03-01T04:20:06.594Z,100.00
2023-03-01T04:22:10.255Z,100.00
2023-03-01T04:24:13.569Z,100.00
2023-03-01T04:26:17.683Z,100.00
2023-03-01T04:28:20.369Z,100.00
2023-03-01T04:30:26.339Z,100.00
2023-03-01T04:32:29.168Z,100.00
2023-03-01T04:34:32.402Z,100.00
2023-03-01T04:36:36.655Z,100.00
2023-03-01T04:38:40.165Z,100.00
2023-03-01T04:40:44.123Z,100.00
2023-03-01T04:42:48.263Z,100.00
2023-03-01T04:44:52.230Z,100.00
2023-03-01T04:46:54.920Z,100.00
2023-03-01T04:48:57.713Z,100.00
2023-03-01T04:51:00.667Z,100.00
2023-03-01T04:53:03.488Z,100.00
2023-03-01T04:55:07.516Z,100.00
2023-03-01T04:57:10.186Z,100.00
2023-03-01T04:59:14.616Z,100.00
2023-03-01T05:01:19.850Z,100.00
2023-03-01T05:03:23.390Z,100.00
2023-03-01T05:05:28.825Z,100.00
2023-03-01T05:07:31.539Z,100.00
2023-03-01T05:09:34.292Z,100.00
2023-03-01T05:11:37.718Z,100.00
2023-03-01T05:13:41.531Z,100.00
2023-03-01T05:15:45.644Z,100.00
2023-03-01T05:17:48.338Z,100.00
2023-03-01T05:19:51.268Z,100.00
2023-03-01T05:22:06.000Z,100.00
2023-03-01T05:24:12.694Z,100.00
2023-03-01T05:26:28.008Z,100.00
2023-03-01T05:28:31.597Z,100.00
2023-03-01T05:30:34.905Z,100.00
2023-03-01T05:32:38.930Z,100.00
2023-03-01T05:34:41.725Z,100.00
2023-03-01T05:36:44.463Z,100.00
2023-03-01T05:38:47.213Z,100.00
2023-03-01T05:40:50.563Z,100.00
2023-03-01T05:42:55.842Z,100.00
2023-03-01T05:44:58.697Z,100.00
2023-03-01T05:47:01.338Z,100.00
2023-03-01T05:49:05.330Z,100.00
2023-03-01T05:51:08.228Z,100.00
2023-03-01T05:53:12.941Z,100.00
2023-03-01T05:55:15.841Z,100.00
2023-03-01T05:57:18.544Z,100.00
2023-03-01T05:59:21.204Z,100.00
2023-03-01T06:01:23.829Z,100.00
2023-03-01T06:03:26.554Z,100.00
2023-03-01T06:05:31.103Z,100.00
2023-03-01T06:07:34.084Z,100.00
2023-03-01T06:09:36.733Z,100.00
2023-03-01T06:11:39.417Z,100.00
2023-03-01T06:13:43.373Z,100.00
2023-03-01T06:15:46.074Z,100.00
2023-03-01T06:17:48.817Z,100.00
2023-03-01T06:19:51.460Z,100.00
2023-03-01T06:21:55.547Z,100.00
2023-03-01T06:23:58.207Z,100.00
2023-03-01T06:26:01.208Z,100.00
2023-03-01T06:28:05.421Z,100.00
2023-03-01T06:30:10.829Z,100.00
2023-03-01T06:32:13.622Z,100.00
2023-03-01T06:34:16.609Z,100.00
2023-03-01T06:36:21.983Z,100.00
2023-03-01T06:38:26.264Z,100.00
2023-03-01T06:40:29.278Z,100.00
2023-03-01T06:42:31.945Z,100.00
2023-03-01T06:44:34.619Z,100.00
2023-03-01T06:46:37.424Z,100.00
2023-03-01T06:48:40.193Z,100.00
2023-03-01T06:50:43.014Z,100.00
2023-03-01T06:54:50.492Z,100.00
2023-03-01T06:56:53.238Z,100.00
2023-03-01T06:58:55.931Z,100.00
2023-03-01T07:00:58.717Z,100.00
2023-03-01T07:03:02.907Z,100.00
2023-03-01T07:05:06.573Z,100.00
2023-03-01T07:07:09.600Z,100.00
2023-03-01T07:09:12.293Z,100.00
2023-03-01T07:11:16.678Z,100.00
2023-03-01T07:13:19.343Z,100.00
2023-03-01T07:15:22.078Z,100.00
2023-03-01T07:17:24.803Z,100.00
2023-03-01T07:19:27.628Z,100.00
2023-03-01T07:21:30.303Z,100.00
2023-03-01T07:23:32.997Z,100.00
2023-03-01T07:25:35.987Z,100.00
2023-03-01T07:27:40.050Z,100.00
2023-03-01T07:29:42.766Z,100.00
2023-03-01T07:31:45.585Z,100.00
2023-03-01T07:33:48.363Z,100.00
2023-03-01T07:35:58.091Z,100.00
2023-03-01T07:38:00.868Z,100.00
2023-03-01T07:40:03.880Z,100.00
2023-03-01T07:42:06.581Z,100.00
2023-03-01T07:44:11.707Z,100.00
2023-03-01T07:46:14.486Z,100.00
2023-03-01T07:48:17.218Z,100.00
2023-03-01T07:50:20.428Z,100.00
2023-03-01T07:52:23.121Z,100.00
2023-03-01T07:54:27.171Z,100.00
2023-03-01T07:56:30.363Z,100.00
2023-03-01T07:58:33.627Z,100.00
2023-03-01T08:00:37.939Z,100.00
2023-03-01T08:02:42.600Z,100.00
2023-03-01T08:04:45.339Z,100.00
2023-03-01T08:06:48.102Z,100.00
2023-03-01T08:08:50.831Z,100.00
2023-03-01T08:10:53.550Z,100.00
2023-03-01T08:12:56.241Z,100.00
2023-03-01T08:14:58.963Z,100.00
2023-03-01T08:17:04.085Z,100.00
2023-03-01T08:19:07.219Z,100.00
2023-03-01T08:21:11.630Z,100.00
2023-03-01T08:23:14.809Z,100.00
2023-03-01T08:25:17.887Z,100.00
2023-03-01T08:27:20.623Z,100.00
2023-03-01T08:29:23.463Z,100.00
2023-03-01T08:31:28.832Z,100.00
2023-03-01T08:33:32.917Z,100.00
2023-03-01T08:35:35.675Z,100.00
2023-03-01T08:37:38.433Z,100.00
2023-03-01T08:39:41.251Z,100.00
2023-03-01T08:41:46.387Z,99.61
2023-03-01T08:43:49.810Z,98.25
2023-03-01T08:45:52.636Z,97.00
2023-03-01T08:47:55.382Z,96.28
2023-03-01T08:49:59.436Z,96.22
2023-03-01T08:52:03.722Z,98.45
2023-03-01T08:54:06.837Z,98.92
2023-03-01T08:56:10.150Z,97.53
2023-03-01T08:58:12.840Z,94.49
2023-03-01T09:00:16.751Z,92.69
2023-03-01T09:02:20.585Z,90.60
2023-03-01T09:04:23.657Z,88.95
2023-03-01T09:06:27.971Z,84.14
2023-03-01T09:08:31.060Z,83.63
2023-03-01T09:10:33.835Z,82.40
2023-03-01T09:12:36.894Z,82.24
2023-03-01T09:14:39.982Z,81.20
2023-03-01T09:16:42.881Z,81.74
2023-03-01T09:18:45.988Z,80.52
2023-03-01T09:20:48.785Z,80.79
2023-03-01T09:22:52.825Z,80.54
2023-03-01T09:24:57.525Z,78.73
2023-03-01T09:27:00.247Z,78.25
2023-03-01T09:29:03.055Z,77.99
2023-03-01T09:31:06.631Z,77.35
2023-03-01T09:33:15.480Z,76.90
2023-03-01T09:35:18.837Z,76.07
2023-03-01T09:37:21.574Z,76.39
2023-03-01T09:39:25.709Z,75.22
2023-03-01T09:41:46.617Z,75.89
2023-03-01T09:43:56.567Z,77.17
2023-03-01T09:46:05.498Z,77.05
2023-03-01T09:48:15.360Z,77.36
2023-03-01T09:50:20.565Z,76.78
2023-03-01T09:52:31.116Z,76.27
2023-03-01T09:54:35.247Z,76.21
2023-03-01T09:56:43.150Z,75.29
2023-03-01T09:58:53.627Z,74.54
2023-03-01T10:00:59.940Z,74.13
2023-03-01T10:03:10.980Z,74.58
2023-03-01T10:05:24.893Z,74.60
2023-03-01T10:07:34.995Z,74.72
2023-03-01T10:09:41.535Z,75.02
2023-03-01T10:11:47.906Z,76.03
2023-03-01T10:13:58.747Z,74.91
2023-03-01T10:16:08.184Z,74.13
2023-03-01T10:18:17.359Z,72.40
2023-03-01T10:20:22.901Z,70.53
2023-03-01T10:22:30.088Z,70.44
2023-03-01T10:24:36.119Z,70.67
2023-03-01T10:26:49.911Z,70.82
2023-03-01T10:29:03.716Z,70.32
2023-03-01T10:31:07.582Z,67.44
2023-03-01T10:33:19.511Z,66.19
2023-03-01T10:35:25.127Z,65.58
2023-03-01T10:37:28.313Z,66.34
2023-03-01T10:39:31.417Z,64.88
2023-03-01T10:41:34.361Z,62.24
2023-03-01T10:43:48.798Z,61.13
2023-03-01T10:45:51.621Z,60.27
2023-03-01T10:48:06.133Z,60.15
2023-03-01T10:50:21.314Z,58.75
2023-03-01T10:52:26.997Z,59.29
2023-03-01T10:54:31.718Z,58.42
2023-03-01T10:56:49.549Z,56.80
2023-03-01T10:59:02.431Z,56.91
2023-03-01T11:01:07.429Z,57.76
2023-03-01T11:03:15.158Z,56.53
2023-03-01T11:05:29.392Z,55.24
2023-03-01T11:07:32.232Z,54.29
2023-03-01T11:09:38.612Z,54.00
2023-03-01T11:11:41.483Z,53.58
2023-03-01T11:13:53.330Z,51.60
2023-03-01T11:16:02.670Z,52.36
2023-03-01T11:18:13.919Z,53.17
2023-03-01T11:20:29.001Z,51.27
2023-03-01T11:22:35.026Z,50.59
2023-03-01T11:24:43.654Z,50.40
2023-03-01T11:26:52.907Z,50.74
2023-03-01T11:29:00.454Z,49.31
2023-03-01T11:31:09.708Z,51.07
2023-03-01T11:33:20.006Z,51.11
2023-03-01T11:35:25.712Z,50.06
2023-03-01T11:37:37.726Z,49.34
2023-03-01T11:39:44.708Z,49.54
2023-03-01T11:41:53.130Z,50.67
2023-03-01T11:43:59.793Z,49.27
2023-03-01T11:46:50.264Z,48.80
2023-03-01T11:49:08.265Z,49.78
2023-03-01T11:51:18.507Z,48.23
2023-03-01T11:53:45.743Z,48.04
2023-03-01T11:56:11.464Z,47.19
2023-03-01T11:58:34.832Z,47.42
2023-03-01T12:00:57.389Z,46.11
2023-03-01T12:03:16.144Z,45.56
2023-03-01T12:05:59.297Z,46.33
2023-03-01T12:08:10.567Z,46.48
2023-03-01T12:10:27.675Z,46.04
2023-03-01T12:12:39.574Z,48.19
2023-03-01T12:15:02.981Z,47.02
2023-03-01T12:17:23.656Z,46.99
2023-03-01T12:19:56.514Z,46.98
2023-03-01T12:22:13.742Z,46.37
2023-03-01T12:24:46.796Z,46.34
2023-03-01T12:27:02.971Z,45.32
2023-03-01T12:29:25.797Z,45.69
2023-03-01T12:31:44.371Z,46.48
2023-03-01T12:33:54.747Z,45.75
2023-03-01T12:36:17.622Z,43.93
2023-03-01T12:38:35.138Z,44.18
2023-03-01T12:40:53.111Z,43.19
2023-03-01T12:43:06.503Z,42.40
2023-03-01T12:45:37.104Z,42.18
2023-03-01T12:47:59.462Z,43.28
2023-03-01T12:50:04.958Z,41.30
2023-03-01T12:52:15.834Z,41.81
2023-03-01T12:54:28.206Z,43.33
2023-03-01T12:56:36.870Z,43.85
2023-03-01T12:58:50.832Z,41.75
2023-03-01T13:01:08.046Z,42.24
2023-03-01T13:03:23.799Z,41.03
2023-03-01T13:05:36.417Z,41.71
2023-03-01T13:07:46.480Z,43.04
2023-03-01T13:10:02.311Z,44.74
2023-03-01T13:12:12.999Z,42.99
2023-03-01T13:14:47.670Z,43.18
2023-03-01T13:16:51.149Z,43.44
2023-03-01T13:19:08.806Z,42.21
2023-03-01T13:21:11.585Z,43.68
2023-03-01T13:23:25.818Z,43.01
2023-03-01T13:25:37.743Z,43.09
2023-03-01T13:27:46.644Z,41.23
2023-03-01T13:29:51.223Z,40.62
2023-03-01T13:32:04.747Z,40.20
2023-03-01T13:34:46.561Z,40.36
2023-03-01T13:36:50.574Z,39.55
2023-03-01T13:38:58.964Z,38.81
2023-03-01T13:41:03.011Z,39.94
2023-03-01T13:43:31.092Z,40.36
2023-03-01T13:45:40.614Z,41.00
2023-03-01T13:47:44.769Z,39.13
2023-03-01T13:49:51.452Z,40.99
2023-03-01T13:51:54.378Z,42.72
2023-03-01T13:53:59.613Z,42.04
2023-03-01T13:56:08.888Z,42.99
2023-03-01T13:58:20.612Z,41.69
2023-03-01T14:00:35.110Z,40.74
2023-03-01T14:02:38.086Z,40.75
2023-03-01T14:04:41.532Z,42.05
2023-03-01T14:06:44.395Z,42.26
2023-03-01T14:08:49.556Z,41.84
2023-03-01T14:11:02.696Z,40.51
2023-03-01T14:13:23.376Z,38.43
2023-03-01T14:15:33.948Z,39.01
2023-03-01T14:17:46.764Z,39.18
2023-03-01T14:19:56.678Z,38.90
2023-03-01T14:22:13.730Z,38.14
2023-03-01T14:24:21.990Z,37.72
2023-03-01T14:26:25.545Z,38.69
2023-03-01T14:28:31.412Z,39.10
2023-03-01T14:30:38.515Z,38.69
2023-03-01T14:32:41.372Z,39.05
2023-03-01T14:34:48.429Z,38.58
2023-03-01T14:36:51.307Z,38.06
2023-03-01T14:38:55.154Z,38.04
2023-03-01T14:41:01.231Z,39.14
2023-03-01T14:43:12.583Z,38.87
2023-03-01T14:45:16.633Z,38.14
2023-03-01T14:47:28.943Z,37.58
2023-03-01T14:49:34.392Z,37.08
2023-03-01T14:51:39.268Z,38.10
2023-03-01T14:53:50.940Z,38.15
2023-03-01T14:55:56.345Z,38.51
2023-03-01T14:58:00.462Z,38.98
2023-03-01T15:00:08.809Z,38.47
2023-03-01T15:02:18.204Z,38.87
2023-03-01T15:04:23.258Z,39.23
2023-03-01T15:06:26.212Z,39.61
2023-03-01T15:08:33.821Z,38.97
2023-03-01T15:10:40.555Z,41.61
2023-03-01T15:12:43.741Z,40.17
2023-03-01T15:15:02.631Z,42.63
2023-03-01T15:17:07.314Z,42.87
2023-03-01T15:19:20.773Z,42.24
2023-03-01T15:21:25.497Z,40.95
2023-03-01T15:23:30.865Z,40.51
2023-03-01T15:25:34.874Z,40.76
2023-03-01T15:27:37.664Z,40.95
2023-03-01T15:29:41.667Z,42.27
2023-03-01T15:31:45.622Z,41.85
2023-03-01T15:33:49.030Z,43.13
2023-03-01T15:35:55.067Z,42.27
2023-03-01T15:38:01.506Z,41.54
2023-03-01T15:40:05.420Z,40.95
2023-03-01T15:42:11.092Z,40.80
2023-03-01T15:44:18.439Z,41.42
2023-03-01T15:46:27.243Z,41.49
2023-03-01T15:48:30.078Z,41.46
2023-03-01T15:50:35.809Z,40.40
2023-03-01T15:52:43.732Z,41.27
2023-03-01T15:54:46.878Z,41.44
2023-03-01T15:57:07.772Z,41.13
2023-03-01T15:59:14.319Z,42.82
2023-03-01T16:01:18.881Z,42.64
2023-03-01T16:03:22.440Z,43.75
2023-03-01T16:05:27.601Z,44.13
2023-03-01T16:07:31.987Z,47.45
2023-03-01T16:09:36.080Z,49.08
2023-03-01T16:11:40.820Z,50.35
2023-03-01T16:13:43.584Z,48.70
2023-03-01T16:15:46.759Z,48.74
2023-03-01T16:17:49.798Z,51.16
2023-03-01T16:19:57.940Z,52.49
2023-03-01T16:22:00.926Z,53.34
2023-03-01T16:24:03.886Z,56.33
2023-03-01T16:26:07.984Z,56.47
2023-03-01T16:28:11.124Z,58.17
2023-03-01T16:30:15.557Z,58.34
2023-03-01T16:32:18.367Z,61.54
2023-03-01T16:34:22.769Z,63.39
2023-03-01T16:36:29.027Z,64.26
2023-03-01T16:38:33.418Z,64.24
2023-03-01T16:40:36.157Z,64.79
2023-03-01T16:42:40.707Z,63.43
2023-03-01T16:44:44.341Z,63.63
2023-03-01T16:46:47.040Z,65.49
2023-03-01T16:48:51.687Z,66.80
2023-03-01T16:51:00.379Z,67.48
2023-03-01T16:53:03.440Z,68.92
2023-03-01T16:55:08.077Z,69.50
2023-03-01T16:57:10.823Z,69.43
2023-03-01T16:59:15.124Z,69.53
2023-03-01T17:01:20.811Z,71.12
2023-03-01T17:03:24.774Z,71.00
2023-03-01T17:05:27.936Z,70.32
2023-03-01T17:07:34.071Z,70.44
2023-03-01T17:09:37.860Z,70.93
2023-03-01T17:11:40.609Z,70.12
2023-03-01T17:13:44.476Z,70.07
2023-03-01T17:15:48.578Z,69.66
2023-03-01T17:17:52.057Z,71.19
2023-03-01T17:19:54.943Z,70.57
2023-03-01T17:21:57.728Z,73.86
2023-03-01T17:24:00.478Z,73.63
2023-03-01T17:26:03.834Z,75.10
2023-03-01T17:28:06.616Z,76.56
2023-03-01T17:30:11.866Z,77.06
2023-03-01T17:32:16.325Z,78.16
2023-03-01T17:34:19.669Z,76.59
2023-03-01T17:36:22.502Z,77.15
2023-03-01T17:38:25.662Z,77.06
2023-03-01T17:40:28.479Z,77.60
2023-03-01T17:42:31.166Z,76.98
2023-03-01T17:44:34.945Z,78.24
2023-03-01T17:46:37.702Z,78.55
2023-03-01T17:48:41.852Z,80.22
2023-03-01T17:50:44.680Z,81.14
2023-03-01T17:52:47.413Z,81.28
2023-03-01T17:54:50.532Z,82.58
2023-03-01T17:56:53.628Z,83.11
2023-03-01T17:58:56.581Z,84.47
2023-03-01T18:01:08.685Z,83.96
2023-03-01T18:03:11.452Z,84.27
2023-03-01T18:05:15.560Z,83.57
2023-03-01T18:07:18.298Z,83.71
2023-03-01T18:09:22.273Z,84.65
2023-03-01T18:11:26.584Z,84.35
2023-03-01T18:13:29.429Z,84.93
2023-03-01T18:15:32.588Z,84.67
2023-03-01T18:17:35.697Z,85.50
2023-03-01T18:19:41.012Z,84.71
2023-03-01T18:21:45.050Z,84.97
2023-03-01T18:23:47.840Z,85.61
2023-03-01T18:25:50.549Z,84.86
2023-03-01T18:27:53.246Z,85.77
2023-03-01T18:29:56.429Z,86.22
2023-03-01T18:31:59.300Z,85.76
2023-03-01T18:34:02.066Z,100.00
2023-03-01T18:36:05.749Z,82.87
2023-03-01T18:38:10.313Z,83.35
2023-03-01T18:40:14.104Z,85.60
2023-03-01T18:42:17.999Z,86.95
2023-03-01T18:44:20.821Z,87.38
2023-03-01T18:46:24.309Z,87.27
2023-03-01T18:48:27.873Z,88.06
2023-03-01T18:50:30.683Z,88.46
2023-03-01T18:52:33.433Z,88.94
2023-03-01T18:54:37.538Z,89.11
2023-03-01T18:56:40.539Z,89.74
2023-03-01T18:58:44.170Z,89.96
2023-03-01T19:00:47.000Z,90.26
2023-03-01T19:02:49.900Z,89.60
2023-03-01T19:04:52.892Z,89.94
2023-03-01T19:06:55.607Z,89.45
2023-03-01T19:08:58.782Z,88.91
2023-03-01T19:11:05.219Z,88.83
2023-03-01T19:13:08.006Z,87.76
2023-03-01T19:15:11.734Z,87.54
2023-03-01T19:17:14.513Z,87.08
2023-03-01T19:19:17.239Z,87.36
2023-03-01T19:21:22.566Z,87.19
2023-03-01T19:23:25.321Z,85.42
2023-03-01T19:25:28.022Z,86.35
2023-03-01T19:27:32.109Z,88.78
2023-03-01T19:29:35.331Z,87.45
2023-03-01T19:31:39.124Z,88.19
2023-03-01T19:33:42.456Z,88.31
2023-03-01T19:35:45.241Z,89.20
2023-03-01T19:37:47.968Z,89.27
2023-03-01T19:39:50.792Z,88.49
2023-03-01T19:41:53.527Z,88.56
2023-03-01T19:43:58.202Z,88.62
2023-03-01T19:46:01.549Z,88.76
2023-03-01T19:48:04.804Z,88.67
2023-03-01T19:50:08.263Z,90.36
2023-03-01T19:52:11.382Z,89.08
2023-03-01T19:54:19.909Z,89.71
2023-03-01T19:56:22.698Z,89.70
2023-03-01T19:58:26.612Z,90.55
2023-03-01T20:00:30.926Z,90.78
2023-03-01T20:02:33.734Z,90.04
2023-03-01T20:04:36.994Z,90.18
2023-03-01T20:06:41.576Z,90.82
2023-03-01T20:08:45.233Z,91.66
2023-03-01T20:10:48.109Z,90.77
2023-03-01T20:12:51.054Z,91.26
2023-03-01T20:14:55.432Z,91.18
2023-03-01T20:16:59.531Z,92.11
2023-03-01T20:19:02.613Z,92.60
2023-03-01T20:21:14.595Z,92.85
2023-03-01T20:23:24.321Z,92.33
2023-03-01T20:25:27.067Z,92.76
2023-03-01T20:27:29.767Z,92.69
2023-03-01T20:29:32.569Z,93.11
2023-03-01T20:31:35.353Z,92.24
2023-03-01T20:33:39.874Z,91.95
2023-03-01T20:35:43.717Z,91.61
2023-03-01T20:37:46.576Z,90.15
2023-03-01T20:39:49.538Z,91.12
2023-03-01T20:41:52.239Z,90.42
2023-03-01T20:43:56.842Z,89.43
2023-03-01T20:45:59.895Z,89.02
2023-03-01T20:48:02.675Z,89.07
2023-03-01T20:50:07.740Z,91.42
2023-03-01T20:52:10.794Z,90.52
2023-03-01T20:54:13.563Z,90.71
2023-03-01T20:56:17.595Z,90.69
2023-03-01T20:58:37.837Z,90.84
2023-03-01T21:00:40.669Z,92.27
2023-03-01T21:02:44.029Z,91.98
2023-03-01T21:04:46.829Z,92.72
2023-03-01T21:06:50.860Z,92.79
2023-03-01T21:08:54.801Z,92.47
2023-03-01T21:10:58.638Z,93.15
2023-03-01T21:13:01.296Z,92.38
2023-03-01T21:15:04.445Z,92.51
2023-03-01T21:17:07.117Z,92.54
2023-03-01T21:19:10.959Z,93.37
2023-03-01T21:21:16.002Z,92.55
2023-03-01T21:23:20.298Z,92.08
2023-03-01T21:25:23.007Z,93.65
2023-03-01T21:27:25.786Z,93.49
2023-03-01T21:29:28.441Z,92.84
2023-03-01T21:31:33.945Z,92.37
2023-03-01T21:33:37.486Z,93.99
2023-03-01T21:35:40.197Z,94.20
2023-03-01T21:37:42.984Z,95.13
2023-03-01T21:39:47.236Z,96.85
2023-03-01T21:41:50.778Z,97.75
2023-03-01T21:43:56.892Z,97.90
2023-03-01T21:46:02.621Z,99.35
2023-03-01T21:48:05.503Z,99.93
2023-03-01T21:50:09.599Z,99.76
2023-03-01T21:52:16.777Z,97.96
2023-03-01T21:54:20.751Z,98.48
2023-03-01T21:56:26.725Z,98.63
2023-03-01T21:58:31.456Z,99.59
2023-03-01T22:00:34.164Z,100.00
2023-03-01T22:02:36.932Z,100.00
2023-03-01T22:04:39.707Z,100.00
2023-03-01T22:06:44.422Z,100.00
2023-03-01T22:08:48.900Z,100.00
2023-03-01T22:10:52.246Z,100.00
2023-03-01T22:12:56.627Z,100.00
2023-03-01T22:14:59.407Z,100.00
2023-03-01T22:17:02.223Z,100.00
2023-03-01T22:19:06.442Z,100.00
2023-03-01T22:21:09.686Z,100.00
2023-03-01T22:23:12.474Z,100.00
2023-03-01T22:25:15.246Z,100.00
2023-03-01T22:27:17.990Z,100.00
2023-03-01T22:29:24.421Z,100.00
2023-03-01T22:31:27.957Z,100.00
2023-03-01T22:33:30.713Z,100.00
2023-03-01T22:35:33.415Z,100.00
2023-03-01T22:37:36.743Z,100.00
2023-03-01T22:39:39.444Z,100.00
2023-03-01T22:41:45.556Z,100.00
2023-03-01T22:43:48.255Z,100.00
2023-03-01T22:45:52.413Z,100.00
2023-03-01T22:47:55.141Z,100.00
2023-03-01T22:49:58.097Z,100.00
2023-03-01T22:52:01.479Z,100.00
2023-03-01T22:54:05.153Z,100.00
2023-03-01T22:56:16.223Z,100.00
2023-03-01T22:58:18.900Z,100.00
2023-03-01T23:00:22.130Z,100.00
2023-03-01T23:02:26.465Z,100.00
2023-03-01T23:04:29.328Z,100.00
2023-03-01T23:06:32.507Z,100.00
2023-03-01T23:08:35.813Z,100.00
2023-03-01T23:10:41.617Z,100.00
2023-03-01T23:12:44.291Z,100.00
2023-03-01T23:14:46.974Z,100.00
2023-03-01T23:16:50.761Z,100.00
2023-03-01T23:18:55.457Z,100.00
2023-03-01T23:20:58.101Z,100.00
2023-03-01T23:23:01.525Z,100.00
2023-03-01T23:25:04.620Z,100.00
2023-03-01T23:27:07.266Z,100.00
2023-03-01T23:29:09.932Z,100.00
2023-03-01T23:31:14.631Z,100.00
2023-03-01T23:33:17.457Z,100.00
2023-03-01T23:35:21.530Z,100.00
2023-03-01T23:37:24.279Z,100.00
2023-03-01T23:39:29.820Z,100.00
2023-03-01T23:41:35.035Z,100.00
2023-03-01T23:43:37.759Z,100.00
2023-03-01T23:45:42.989Z,100.00
2023-03-01T23:47:45.809Z,100.00
2023-03-01T23:49:51.356Z,100.00
2023-03-01T23:51:55.383Z,100.00
2023-03-01T23:54:01.100Z,100.00
2023-03-01T23:56:04.116Z,100.00
2023-03-01T23:58:06.840Z,100.00
